Juliaetta, Idaho
Current Conditions -  °F | °C
As of 2:56 PM on Saturday 20 Dec 2014 (Local Time) from KLWS Reporting Station
Light Rain Light Rain  
Wind Chill: 40°   Ceiling: 4300
Heat Index: 44°   Visibility: 10mi
Dew Point: 39°   Wind: 8mph
Humidity: 82%   Direction: 110°ESE
Pressure: 29.76"   Gusts: NA
Location:  46.58°N, 116.71°W
Report Text: KLWS 202256Z 11007KT 10SM -RA OVC043 07/04 A2976 RMK AO2 SLP085 P0000 T00670039
Loading
Personal Weather Stations






























Interactive Weather Map New forecast layout! Learn more

10-Day Weather Forecast

Advertisements
Track Severe Weather on mobile